createdAt,value
2018-04-11T00:02:57.459Z,5.00
2018-04-11T00:08:00.319Z,5.95
2018-04-11T00:13:03.292Z,4.75
2018-04-11T00:18:06.184Z,5.60
2018-04-11T00:23:09.078Z,5.25
2018-04-11T00:28:11.916Z,7.53
2018-04-11T00:33:15.722Z,5.20
2018-04-11T00:38:18.768Z,5.30
2018-04-11T00:43:21.680Z,6.20
2018-04-11T00:48:26.894Z,5.40
2018-04-11T00:53:30.082Z,5.60
2018-04-11T00:58:33.103Z,7.10
2018-04-11T01:03:37.033Z,8.95
2018-04-11T01:08:39.936Z,9.10
2018-04-11T01:13:43.067Z,11.23
2018-04-11T01:18:46.070Z,12.53
2018-04-11T01:23:49.010Z,15.40
2018-04-11T01:28:54.742Z,15.80
2018-04-11T01:33:58.978Z,17.77
2018-04-11T01:39:03.715Z,18.47
2018-04-11T01:44:06.790Z,21.27
2018-04-11T01:49:10.020Z,23.90
2018-04-11T01:54:13.131Z,22.83
2018-04-11T01:59:16.244Z,25.70
2018-04-11T02:04:20.038Z,27.40
2018-04-11T02:09:23.673Z,28.23
2018-04-11T02:14:27.765Z,30.77
2018-04-11T02:19:30.820Z,32.03
2018-04-11T02:24:33.732Z,36.65
2018-04-11T02:29:36.816Z,35.87
2018-04-11T02:34:39.826Z,35.70
2018-04-11T02:39:42.707Z,34.50
2018-04-11T02:44:45.535Z,37.05
2018-04-11T02:49:49.504Z,36.10
2018-04-11T02:54:52.888Z,36.67
2018-04-11T02:59:55.721Z,36.50
2018-04-11T03:04:58.577Z,36.97
2018-04-11T03:10:01.615Z,36.67
2018-04-11T03:15:04.508Z,36.55
2018-04-11T03:20:07.422Z,35.97
2018-04-11T03:25:11.175Z,34.13
2018-04-11T03:30:14.185Z,35.00
2018-04-11T03:35:17.516Z,36.63
2018-04-11T03:40:20.866Z,39.03
2018-04-11T03:45:23.951Z,37.75
2018-04-11T03:50:26.904Z,38.00
2018-04-11T03:55:31.270Z,40.60
2018-04-11T04:00:34.172Z,37.90
2018-04-11T04:05:37.191Z,37.23
2018-04-11T04:10:40.260Z,39.28
2018-04-11T04:15:55.715Z,37.07
2018-04-11T04:20:58.739Z,38.20
2018-04-11T04:26:01.688Z,35.45
2018-04-11T04:31:06.317Z,33.50
2018-04-11T04:36:09.704Z,33.30
2018-04-11T04:41:13.876Z,32.97
2018-04-11T04:46:16.671Z,33.00
2018-04-11T04:51:19.712Z,30.00
2018-04-11T05:01:51.797Z,29.73
2018-04-11T05:06:55.720Z,28.80
2018-04-11T05:11:58.620Z,28.27
2018-04-11T05:17:01.520Z,27.13
2018-04-11T05:22:04.872Z,27.83
2018-04-11T05:27:07.752Z,26.85
2018-04-11T05:32:10.685Z,24.80
2018-04-11T05:37:13.540Z,23.10
2018-04-11T05:42:16.488Z,25.02
2018-04-11T05:47:19.287Z,24.05
2018-04-11T05:52:22.164Z,24.23
2018-04-11T05:57:25.027Z,25.02
2018-04-11T06:02:27.896Z,24.50
2018-04-11T06:07:30.781Z,20.42
2018-04-11T06:12:33.856Z,22.75
2018-04-11T06:17:36.902Z,19.97
2018-04-11T06:22:39.748Z,18.48
2018-04-11T06:27:42.637Z,17.80
2018-04-11T06:32:45.499Z,17.87
2018-04-11T06:37:48.341Z,19.42
2018-04-11T06:42:51.151Z,17.50
2018-04-11T06:47:54.027Z,15.27
2018-04-11T06:52:56.860Z,16.87
2018-04-11T06:57:59.748Z,15.57
2018-04-11T07:03:02.593Z,15.70
2018-04-11T07:08:05.597Z,17.60
2018-04-11T07:13:08.538Z,17.50
2018-04-11T07:18:11.451Z,19.90
2018-04-11T07:23:14.306Z,14.60
2018-04-11T07:28:17.149Z,14.95
2018-04-11T07:33:19.997Z,15.10
2018-04-11T07:38:22.964Z,14.40
2018-04-11T07:43:26.333Z,13.73
2018-04-11T07:48:31.037Z,14.85
2018-04-11T07:53:34.621Z,14.77
2018-04-11T07:58:38.397Z,13.15
2018-04-11T08:03:41.231Z,13.90
2018-04-11T08:08:44.070Z,12.57
2018-04-11T08:13:47.125Z,15.90
2018-04-11T08:18:50.797Z,14.30
2018-04-11T08:23:53.347Z,13.52
2018-04-11T08:28:58.887Z,13.10
2018-04-11T08:34:01.925Z,13.43
2018-04-11T08:39:05.015Z,14.48
2018-04-11T08:44:07.997Z,13.13
2018-04-11T08:49:10.995Z,12.82
2018-04-11T08:54:15.158Z,12.48
2018-04-11T08:59:18.974Z,11.77
2018-04-11T09:04:22.585Z,11.77
2018-04-11T09:09:25.648Z,12.52
2018-04-11T09:14:28.535Z,13.10
2018-04-11T09:19:31.371Z,11.25
2018-04-11T09:24:34.216Z,12.25
2018-04-11T09:29:37.151Z,11.00
2018-04-11T09:34:39.974Z,10.50
2018-04-11T09:39:43.792Z,10.07
2018-04-11T09:44:47.542Z,10.00
2018-04-11T09:49:50.463Z,9.10
2018-04-11T09:54:53.287Z,8.90
2018-04-11T09:59:56.131Z,7.43
2018-04-11T10:04:58.933Z,8.23
2018-04-11T10:10:01.792Z,7.23
2018-04-11T10:15:04.793Z,6.20
2018-04-11T10:25:49.827Z,6.68
2018-04-11T10:30:54.383Z,5.72
2018-04-11T10:35:59.230Z,5.83
2018-04-11T10:41:04.284Z,5.18
2018-04-11T10:46:08.896Z,5.00
2018-04-11T10:51:18.452Z,4.70
2018-04-11T10:56:26.874Z,3.80
2018-04-11T11:01:29.724Z,4.90
2018-04-11T11:06:33.053Z,3.80
2018-04-11T11:11:36.879Z,4.43
2018-04-11T11:16:41.066Z,5.53
2018-04-11T11:21:43.900Z,5.30
2018-04-11T11:26:47.383Z,4.40
2018-04-11T11:31:50.270Z,4.47
2018-04-11T11:36:53.180Z,3.90
2018-04-11T11:41:56.114Z,3.58
2018-04-11T11:46:59.013Z,3.30
2018-04-11T11:52:02.608Z,2.35
2018-04-11T11:57:05.408Z,1.80
2018-04-11T12:02:08.258Z,2.25
2018-04-11T12:07:11.375Z,3.40
2018-04-11T12:12:14.295Z,3.10
2018-04-11T12:17:17.157Z,2.90
2018-04-11T12:22:20.028Z,3.00
2018-04-11T12:27:22.863Z,3.30
2018-04-11T12:32:25.725Z,2.35
2018-04-11T12:37:28.610Z,2.70
2018-04-11T12:42:31.571Z,2.13
2018-04-11T12:47:35.695Z,2.03
2018-04-11T12:52:38.613Z,2.55
2018-04-11T12:57:41.520Z,3.45
2018-04-11T13:02:44.328Z,2.60
2018-04-11T13:07:47.345Z,2.20
2018-04-11T13:12:50.248Z,2.42
2018-04-11T13:17:55.688Z,2.42
2018-04-11T13:22:58.494Z,2.50
2018-04-11T13:28:01.740Z,2.20
2018-04-11T13:33:05.395Z,1.80
2018-04-11T13:38:08.238Z,2.20
2018-04-11T13:43:11.281Z,2.00
2018-04-11T13:48:14.315Z,2.00
2018-04-11T13:53:17.520Z,2.90
2018-04-11T13:58:20.398Z,2.53
2018-04-11T14:03:23.271Z,2.70
2018-04-11T14:08:26.251Z,2.30
2018-04-11T14:13:29.169Z,1.67
2018-04-11T14:18:33.375Z,2.85
2018-04-11T14:23:36.986Z,2.07
2018-04-11T14:28:40.021Z,1.80
2018-04-11T14:33:42.917Z,3.30
2018-04-11T14:38:45.818Z,2.08
2018-04-11T14:43:48.686Z,2.10
2018-04-11T14:48:53.743Z,2.10
2018-04-11T14:59:07.060Z,1.90
2018-04-11T15:04:09.961Z,3.40
2018-04-11T15:09:12.836Z,2.78
2018-04-11T15:14:15.741Z,2.10
2018-04-11T15:19:18.636Z,1.90
2018-04-11T15:24:24.621Z,2.78
2018-04-11T15:29:28.008Z,4.25
2018-04-11T15:34:30.892Z,3.78
2018-04-11T15:39:34.870Z,5.47
2018-04-11T15:44:37.744Z,5.12
2018-04-11T15:49:40.601Z,5.20
2018-04-11T15:54:43.446Z,5.20
2018-04-11T15:59:46.346Z,3.47
2018-04-11T16:04:49.258Z,2.15
2018-04-11T16:09:52.656Z,2.77
2018-04-11T16:14:56.672Z,1.85
2018-04-11T16:20:01.090Z,2.50
2018-04-11T16:25:04.581Z,3.35
2018-04-11T16:30:07.903Z,1.67
2018-04-11T16:35:11.428Z,3.40
2018-04-11T16:40:14.720Z,4.70
2018-04-11T16:45:18.111Z,3.50
2018-04-11T16:50:22.767Z,2.87
2018-04-11T16:55:49.420Z,6.73
2018-04-11T17:00:52.852Z,8.65
2018-04-11T17:05:56.204Z,37.88
2018-04-11T17:11:00.999Z,33.83
2018-04-11T17:16:04.498Z,35.03
2018-04-11T17:21:19.400Z,4.40
2018-04-11T17:26:34.464Z,3.70
2018-04-11T17:31:39.030Z,2.30
2018-04-11T17:36:42.520Z,3.67
2018-04-11T17:41:46.095Z,2.57
2018-04-11T17:46:48.990Z,2.30
2018-04-11T17:51:51.868Z,2.10
2018-04-11T17:56:55.096Z,1.92
2018-04-11T18:02:09.924Z,2.45
2018-04-11T18:07:13.645Z,2.10
2018-04-11T18:12:16.637Z,2.10
2018-04-11T18:17:19.737Z,2.62
2018-04-11T18:22:22.723Z,2.10
2018-04-11T18:27:25.796Z,2.30
2018-04-11T18:46:14.598Z,2.60
2018-04-11T18:51:17.767Z,2.83
2018-04-11T18:56:22.216Z,9.77
2018-04-11T19:01:29.313Z,5.80
2018-04-11T19:06:33.037Z,12.73
2018-04-11T19:11:37.307Z,6.03
2018-04-11T19:16:45.077Z,5.90
2018-04-11T19:21:50.544Z,3.60
2018-04-11T19:32:36.153Z,2.55
2018-04-11T19:37:39.556Z,3.00
2018-04-11T19:42:47.049Z,4.20
2018-04-11T19:47:50.275Z,3.50
2018-04-11T19:52:53.488Z,3.20
2018-04-11T19:57:56.382Z,5.00
2018-04-11T20:03:00.719Z,4.07
2018-04-11T20:08:04.507Z,4.63
2018-04-11T20:13:07.539Z,3.50
2018-04-11T20:18:13.247Z,3.08
2018-04-11T20:23:16.724Z,2.97
2018-04-11T20:28:19.699Z,2.60
2018-04-11T20:33:26.589Z,3.80
2018-04-11T20:50:26.051Z,3.10
2018-04-11T21:00:43.223Z,5.07
2018-04-11T21:05:50.402Z,3.75
2018-04-11T21:11:04.739Z,3.20
2018-04-11T21:16:09.272Z,2.80
2018-04-11T21:21:12.824Z,3.00
2018-04-11T21:26:19.163Z,5.28
2018-04-11T21:31:23.657Z,3.20
2018-04-11T21:42:06.964Z,3.00
2018-04-11T21:47:21.907Z,3.08
2018-04-11T21:57:48.226Z,3.55
2018-04-11T22:02:51.814Z,3.50
2018-04-11T22:07:55.958Z,3.40
2018-04-11T22:13:15.802Z,3.25
2018-04-11T22:23:41.864Z,4.62
2018-04-11T22:28:50.207Z,3.30
2018-04-11T22:33:53.093Z,3.50
2018-04-11T22:38:55.990Z,3.75
2018-04-11T22:43:58.897Z,5.03
2018-04-11T22:49:01.854Z,3.30
2018-04-11T22:54:04.833Z,3.22
2018-04-11T22:59:07.663Z,3.37
2018-04-11T23:04:10.640Z,5.10
2018-04-11T23:09:14.311Z,3.43
2018-04-11T23:14:17.205Z,2.90
2018-04-11T23:19:20.494Z,3.85
2018-04-11T23:24:24.789Z,4.23
2018-04-11T23:29:27.846Z,5.47
2018-04-11T23:34:30.710Z,4.68
2018-04-11T23:39:34.673Z,4.20
2018-04-11T23:44:37.985Z,3.73
2018-04-11T23:49:41.921Z,6.00
2018-04-11T23:54:44.892Z,4.32
2018-04-11T23:59:47.693Z,4.95
